Time;durP1;ratioP1;P1;durP2;ratioP2;P2;SDS_P1;SDS_P2;PMS_P1;PMS_P2;Temp;Humidity;BMP_temperature;BMP_pressure;BME280_temperature;BME280_humidity;BME280_pressure;Samples;Min_cycle;Max_cycle;Signal;HPM_P1;HPM_P2
2021/09/27 00:00:35;;;;;;;;;1.00;1.00;;;;;;;;2767457;51;9459;-57
2021/09/27 00:03:00;;;;;;;;;1.00;1.00;;;;;;;;2767484;51;8782;-58
2021/09/27 00:05:27;;;;;;;;;1.50;1.50;;;;;;;;2767810;51;8776;-58
2021/09/27 00:07:53;;;;;;;;;2.00;2.00;;;;;;;;2767404;51;11432;-57
2021/09/27 00:10:31;;;;;;;;;1.67;1.67;;;;;;;;2767589;51;8795;-58
2021/09/27 00:12:57;;;;;;;;;1.40;1.20;;;;;;;;2767878;51;8772;-58
2021/09/27 00:15:29;;;;;;;;;1.20;1.20;;;;;;;;2767450;51;8852;-56
2021/09/27 00:17:54;;;;;;;;;1.60;1.60;;;;;;;;2767612;51;8794;-58
2021/09/27 00:20:20;;;;;;;;;1.00;1.00;;;;;;;;2767734;51;8763;-58
2021/09/27 00:22:48;;;;;;;;;1.00;1.00;;;;;;;;2767619;51;8791;-58
2021/09/27 00:25:15;;;;;;;;;4.00;1.40;;;;;;;;2767922;51;8791;-58
2021/09/27 00:27:40;;;;;;;;;3.00;2.00;;;;;;;;2767366;51;8870;-58
2021/09/27 00:30:06;;;;;;;;;3.00;2.00;;;;;;;;2767325;51;8886;-58
2021/09/27 00:32:32;;;;;;;;;1.60;1.60;;;;;;;;2767279;51;8791;-56
2021/09/27 00:34:58;;;;;;;;;2.33;1.33;;;;;;;;2767500;51;9448;-58
2021/09/27 00:37:23;;;;;;;;;1.00;1.00;;;;;;;;2767348;51;8788;-57
2021/09/27 00:39:49;;;;;;;;;2.25;2.00;;;;;;;;2767342;51;8898;-59
2021/09/27 00:42:14;;;;;;;;;5.00;1.33;;;;;;;;2767383;51;8795;-57
2021/09/27 00:44:40;;;;;;;;;2.00;2.00;;;;;;;;2767266;51;8857;-58
2021/09/27 00:47:06;;;;;;;;;2.00;1.50;;;;;;;;2767553;51;8775;-58
2021/09/27 00:49:32;;;;;;;;;2.25;2.25;;;;;;;;2767421;51;8787;-56
2021/09/27 00:51:57;;;;;;;;;3.00;1.00;;;;;;;;2767516;51;8807;-60
2021/09/27 00:54:31;;;;;;;;;2.00;1.00;;;;;;;;2767440;51;8894;-58
2021/09/27 00:57:03;;;;;;;;;1.00;1.00;;;;;;;;2767519;51;8764;-58
2021/09/27 00:59:30;;;;;;;;;1.75;1.75;;;;;;;;2767327;51;8780;-57
2021/09/27 01:01:55;;;;;;;;;3.25;2.00;;;;;;;;2767612;51;8869;-57
2021/09/27 01:04:21;;;;;;;;;2.00;2.00;;;;;;;;2767739;51;8771;-60
2021/09/27 01:06:47;;;;;;;;;1.00;1.00;;;;;;;;2767451;51;8780;-60
2021/09/27 01:09:12;;;;;;;;;1.67;1.67;;;;;;;;2767250;51;8796;-58
2021/09/27 01:11:56;;;;;;;;;4.67;2.00;;;;;;;;2767449;51;8795;-59
2021/09/27 01:14:49;;;;;;;;;2.00;2.00;;;;;;;;2767592;51;8772;-59
2021/09/27 01:17:17;;;;;;;;;2.00;2.00;;;;;;;;2767620;51;8886;-58
2021/09/27 01:19:54;;;;;;;;;1.50;1.50;;;;;;;;2767257;51;8894;-59
2021/09/27 01:22:33;;;;;;;;;2.00;2.00;;;;;;;;2767412;51;8775;-57
2021/09/27 01:25:17;;;;;;;;;0.75;0.75;;;;;;;;2767560;51;8774;-58
2021/09/27 01:27:58;;;;;;;;;1.75;1.75;;;;;;;;2767333;51;8760;-58
2021/09/27 01:30:26;;;;;;;;;2.60;1.00;;;;;;;;2767425;51;8895;-56
2021/09/27 01:32:58;;;;;;;;;2.40;1.00;;;;;;;;2767348;51;8759;-57
2021/09/27 01:35:42;;;;;;;;;1.40;1.00;;;;;;;;2767162;51;8759;-57
2021/09/27 01:38:14;;;;;;;;;1.00;1.00;;;;;;;;2767425;51;8755;-59
2021/09/27 01:40:58;;;;;;;;;1.00;1.00;;;;;;;;2767295;51;8865;-59
2021/09/27 01:43:33;;;;;;;;;6.00;2.00;;;;;;;;2767663;51;8760;-58
2021/09/27 01:46:08;;;;;;;;;1.00;1.00;;;;;;;;2767192;51;8778;-58
2021/09/27 01:48:34;;;;;;;;;2.00;2.00;;;;;;;;2767234;51;8760;-58
2021/09/27 01:51:03;;;;;;;;;2.33;2.00;;;;;;;;2767456;51;9436;-57
2021/09/27 01:53:43;;;;;;;;;1.75;1.75;;;;;;;;2767282;51;8764;-58
2021/09/27 01:56:12;;;;;;;;;2.00;2.00;;;;;;;;2767262;51;8780;-57
2021/09/27 01:58:43;;;;;;;;;1.00;1.00;;;;;;;;2766893;51;8759;-57
2021/09/27 02:01:24;;;;;;;;;0.75;0.75;;;;;;;;2767082;51;8772;-57
2021/09/27 02:03:54;;;;;;;;;3.75;1.50;;;;;;;;2767215;51;8764;-57
2021/09/27 02:06:26;;;;;;;;;0.00;0.00;;;;;;;;2767361;51;8910;-61
2021/09/27 02:08:51;;;;;;;;;1.80;1.80;;;;;;;;2766895;51;8771;-58
2021/09/27 02:11:49;;;;;;;;;1.67;1.67;;;;;;;;2767103;51;9451;-57
2021/09/27 02:14:33;;;;;;;;;1.50;1.50;;;;;;;;2753865;51;8764;-58
2021/09/27 02:17:03;;;;;;;;;1.00;1.00;;;;;;;;2767131;51;8772;-58
2021/09/27 02:19:47;;;;;;;;;1.50;1.50;;;;;;;;2767106;51;8782;-58
2021/09/27 02:22:21;;;;;;;;;1.00;1.00;;;;;;;;2766966;51;8771;-58
2021/09/27 02:24:51;;;;;;;;;2.20;1.00;;;;;;;;2767296;51;8760;-59
2021/09/27 02:27:16;;;;;;;;;3.25;2.50;;;;;;;;2767213;51;8760;-58
2021/09/27 02:29:42;;;;;;;;;1.75;1.75;;;;;;;;2766957;51;8867;-57
2021/09/27 02:32:10;;;;;;;;;3.67;2.33;;;;;;;;2766912;51;8795;-57
2021/09/27 02:34:42;;;;;;;;;5.00;3.75;;;;;;;;2766901;51;8767;-58
2021/09/27 02:37:26;;;;;;;;;6.50;4.25;;;;;;;;2766987;51;9505;-57
2021/09/27 02:40:11;;;;;;;;;5.00;3.75;;;;;;;;2766993;51;8764;-57
2021/09/27 02:42:40;;;;;;;;;3.00;3.00;;;;;;;;2767141;51;8767;-58
2021/09/27 02:45:07;;;;;;;;;3.25;3.25;;;;;;;;2766873;51;8767;-57
2021/09/27 02:47:36;;;;;;;;;2.00;2.00;;;;;;;;2766969;51;8763;-58
2021/09/27 02:50:03;;;;;;;;;3.25;1.75;;;;;;;;2766847;51;8768;-57
2021/09/27 02:52:30;;;;;;;;;2.00;1.75;;;;;;;;2766973;51;8914;-57
2021/09/27 02:55:02;;;;;;;;;4.33;3.00;;;;;;;;2766997;51;9424;-58
2021/09/27 02:57:45;;;;;;;;;2.50;1.50;;;;;;;;2767017;51;8877;-59
2021/09/27 03:00:22;;;;;;;;;3.00;2.00;;;;;;;;2766972;51;8752;-58
2021/09/27 03:02:51;;;;;;;;;1.00;1.00;;;;;;;;2766905;51;8890;-58
2021/09/27 03:05:45;;;;;;;;;5.50;3.50;;;;;;;;2766813;51;8768;-58
2021/09/27 03:08:28;;;;;;;;;1.00;1.00;;;;;;;;2766847;51;8902;-55
2021/09/27 03:11:12;;;;;;;;;2.00;1.50;;;;;;;;2767890;51;8803;-59
2021/09/27 03:13:56;;;;;;;;;2.75;2.75;;;;;;;;2767709;51;8764;-57
2021/09/27 03:16:37;;;;;;;;;1.50;1.50;;;;;;;;2767671;51;8775;-58
2021/09/27 03:19:11;;;;;;;;;2.00;2.00;;;;;;;;2767964;51;8768;-58
2021/09/27 03:21:57;;;;;;;;;2.50;2.50;;;;;;;;2767673;51;8772;-57
2021/09/27 03:24:41;;;;;;;;;1.00;1.00;;;;;;;;2755328;51;8780;-59
2021/09/27 03:27:07;;;;;;;;;2.00;1.50;;;;;;;;2768167;51;8756;-58
2021/09/27 03:29:41;;;;;;;;;2.00;2.00;;;;;;;;2767598;51;8918;-57
2021/09/27 03:32:13;;;;;;;;;1.25;1.25;;;;;;;;2767779;51;8824;-60
2021/09/27 03:34:50;;;;;;;;;1.25;1.25;;;;;;;;2767666;51;8772;-57
2021/09/27 03:37:19;;;;;;;;;1.00;1.00;;;;;;;;2767791;51;8779;-58
2021/09/27 03:39:56;;;;;;;;;3.00;2.00;;;;;;;;2768114;51;8771;-58
2021/09/27 03:42:37;;;;;;;;;1.25;1.25;;;;;;;;2767599;51;9392;-59
2021/09/27 03:45:06;;;;;;;;;3.75;2.00;;;;;;;;2768114;51;9421;-57
2021/09/27 03:47:41;;;;;;;;;1.50;1.50;;;;;;;;2768092;51;8780;-58
2021/09/27 03:50:27;;;;;;;;;1.50;1.50;;;;;;;;2767511;51;9416;-59
2021/09/27 03:52:56;;;;;;;;;2.25;1.50;;;;;;;;2767717;51;8808;-56
2021/09/27 03:55:42;;;;;;;;;2.00;2.00;;;;;;;;2767631;51;8775;-61
2021/09/27 03:58:11;;;;;;;;;3.00;2.25;;;;;;;;2763553;51;8772;-58
2021/09/27 04:00:48;;;;;;;;;1.25;1.25;;;;;;;;2767316;51;8818;-57
2021/09/27 04:03:16;;;;;;;;;2.25;1.25;;;;;;;;2767882;51;8790;-59
2021/09/27 04:05:57;;;;;;;;;4.25;2.00;;;;;;;;2767527;51;8771;-58
2021/09/27 04:08:26;;;;;;;;;3.50;2.50;;;;;;;;2767685;51;8779;-58
2021/09/27 04:11:09;;;;;;;;;2.50;2.50;;;;;;;;2767582;51;8799;-59
2021/09/27 04:13:37;;;;;;;;;3.25;2.00;;;;;;;;2767692;51;8776;-57
2021/09/27 04:16:06;;;;;;;;;2.25;2.25;;;;;;;;2767464;51;8863;-58
2021/09/27 04:18:43;;;;;;;;;3.00;3.00;;;;;;;;2767612;51;8779;-59
2021/09/27 04:21:14;;;;;;;;;4.50;3.50;;;;;;;;2767452;51;9454;-59
2021/09/27 04:24:03;;;;;;;;;2.75;2.50;;;;;;;;2767549;51;8783;-57
2021/09/27 04:26:49;;;;;;;;;2.25;2.00;;;;;;;;2764480;51;8782;-60
2021/09/27 04:29:30;;;;;;;;;2.50;2.50;;;;;;;;2767187;51;8812;-59
2021/09/27 04:32:13;;;;;;;;;3.50;2.00;;;;;;;;2767226;51;8811;-58
2021/09/27 04:34:48;;;;;;;;;5.75;3.00;;;;;;;;2767104;51;8881;-59
2021/09/27 04:37:17;;;;;;;;;4.75;3.50;;;;;;;;2767255;51;8775;-59
2021/09/27 04:39:44;;;;;;;;;4.00;4.00;;;;;;;;2767455;51;8764;-58
2021/09/27 04:42:29;;;;;;;;;4.75;3.00;;;;;;;;2767617;51;8855;-58
2021/09/27 04:44:57;;;;;;;;;5.00;4.00;;;;;;;;2767785;51;8832;-58
2021/09/27 04:47:41;;;;;;;;;4.60;3.40;;;;;;;;2767390;51;8768;-59
2021/09/27 04:50:13;;;;;;;;;3.00;3.00;;;;;;;;2767299;51;8756;-58
2021/09/27 04:52:58;;;;;;;;;4.00;4.00;;;;;;;;2767297;51;8808;-59
2021/09/27 04:55:47;;;;;;;;;3.00;3.00;;;;;;;;2766959;51;8855;-60
2021/09/27 04:58:31;;;;;;;;;2.60;2.60;;;;;;;;2756040;51;8780;-58
2021/09/27 05:00:56;;;;;;;;;4.20;4.20;;;;;;;;2767079;51;8759;-59
2021/09/27 05:03:42;;;;;;;;;5.50;3.75;;;;;;;;2767078;51;9438;-59
2021/09/27 05:06:19;;;;;;;;;4.40;3.40;;;;;;;;2767373;51;8776;-58
2021/09/27 05:09:05;;;;;;;;;4.20;4.00;;;;;;;;2766715;51;8780;-58
2021/09/27 05:11:31;;;;;;;;;6.60;5.00;;;;;;;;2754564;51;8799;-58
2021/09/27 05:14:15;;;;;;;;;3.00;3.00;;;;;;;;2767194;51;8782;-57
2021/09/27 05:16:46;;;;;;;;;2.60;2.60;;;;;;;;2767271;51;8783;-58
2021/09/27 05:19:20;;;;;;;;;4.40;4.00;;;;;;;;2767175;51;8768;-58
2021/09/27 05:21:55;;;;;;;;;5.20;3.60;;;;;;;;2767215;51;9510;-59
2021/09/27 05:24:23;;;;;;;;;3.80;2.60;;;;;;;;2767220;51;8762;-57
2021/09/27 05:27:17;;;;;;;;;5.00;4.00;;;;;;;;2767263;51;8919;-60
2021/09/27 05:29:51;;;;;;;;;3.00;3.00;;;;;;;;2767066;51;8764;-59
2021/09/27 05:32:36;;;;;;;;;2.80;2.80;;;;;;;;2766738;51;8795;-58
2021/09/27 05:35:07;;;;;;;;;3.60;3.60;;;;;;;;2767208;51;8911;-59
2021/09/27 05:37:53;;;;;;;;;3.60;3.60;;;;;;;;2766978;51;8787;-58
2021/09/27 05:40:31;;;;;;;;;2.80;2.80;;;;;;;;2767001;51;8779;-58
2021/09/27 05:42:57;;;;;;;;;5.00;3.60;;;;;;;;2767239;51;8869;-60
2021/09/27 05:45:24;;;;;;;;;3.00;2.50;;;;;;;;2767309;51;8795;-58
2021/09/27 05:47:49;;;;;;;;;3.00;3.00;;;;;;;;2767215;51;8764;-58
2021/09/27 05:50:15;;;;;;;;;2.50;2.00;;;;;;;;2767111;51;8804;-60
2021/09/27 05:52:49;;;;;;;;;3.25;3.25;;;;;;;;2767095;51;8812;-57
2021/09/27 05:55:30;;;;;;;;;3.20;2.00;;;;;;;;2767351;51;8763;-59
2021/09/27 05:57:58;;;;;;;;;3.80;3.20;;;;;;;;2767388;51;8812;-59
2021/09/27 06:00:26;;;;;;;;;4.00;3.60;;;;;;;;2767039;51;8771;-58
2021/09/27 06:02:56;;;;;;;;;3.00;3.00;;;;;;;;2767024;51;8775;-57
2021/09/27 06:05:21;;;;;;;;;4.60;3.00;;;;;;;;2767278;51;8799;-57
2021/09/27 06:07:50;;;;;;;;;3.00;3.00;;;;;;;;2767041;51;8780;-64
2021/09/27 06:10:22;;;;;;;;;1.00;1.00;;;;;;;;2767319;51;8919;-58
2021/09/27 06:12:52;;;;;;;;;2.40;2.40;;;;;;;;2767015;51;9525;-59
2021/09/27 06:15:19;;;;;;;;;2.00;2.00;;;;;;;;2767268;51;8756;-59
2021/09/27 06:18:09;;;;;;;;;1.80;1.80;;;;;;;;2767380;51;8780;-60
2021/09/27 06:20:50;;;;;;;;;1.00;1.00;;;;;;;;2766892;51;8784;-59
2021/09/27 06:23:26;;;;;;;;;2.00;2.00;;;;;;;;2767366;51;8782;-58
2021/09/27 06:25:57;;;;;;;;;2.40;2.00;;;;;;;;2767265;51;8759;-59
2021/09/27 06:28:32;;;;;;;;;3.00;2.00;;;;;;;;2767373;51;8783;-60
2021/09/27 06:31:01;;;;;;;;;1.60;1.60;;;;;;;;2767362;51;8806;-60
2021/09/27 06:33:45;;;;;;;;;1.00;1.00;;;;;;;;2767026;51;9388;-60
2021/09/27 06:36:15;;;;;;;;;2.80;2.00;;;;;;;;2766963;51;8862;-59
2021/09/27 06:38:41;;;;;;;;;0.40;0.40;;;;;;;;2767074;51;8760;-58
2021/09/27 06:41:09;;;;;;;;;1.25;1.25;;;;;;;;2766984;51;8776;-59
2021/09/27 06:43:35;;;;;;;;;0.40;0.40;;;;;;;;2767313;51;8894;-59
2021/09/27 06:46:01;;;;;;;;;2.00;2.00;;;;;;;;2767751;51;8853;-59
2021/09/27 06:48:27;;;;;;;;;0.25;0.25;;;;;;;;2767850;51;8764;-59
2021/09/27 06:50:53;;;;;;;;;1.00;1.00;;;;;;;;2768231;51;9887;-59
2021/09/27 06:53:19;;;;;;;;;1.00;1.00;;;;;;;;2767856;51;8768;-59
2021/09/27 06:55:45;;;;;;;;;1.25;1.25;;;;;;;;2768453;51;8767;-57
2021/09/27 06:58:11;;;;;;;;;2.40;2.40;;;;;;;;2767760;51;8783;-60
2021/09/27 07:00:36;;;;;;;;;2.00;2.00;;;;;;;;2767752;51;8845;-61
2021/09/27 07:03:02;;;;;;;;;2.00;2.00;;;;;;;;2768430;51;8776;-59
2021/09/27 07:05:28;;;;;;;;;2.00;1.00;;;;;;;;2767681;51;8890;-60
2021/09/27 07:07:53;;;;;;;;;1.00;1.00;;;;;;;;2767831;51;11484;-64
2021/09/27 07:10:20;;;;;;;;;1.00;1.00;;;;;;;;2768008;51;8878;-62
2021/09/27 07:12:46;;;;;;;;;1.00;1.00;;;;;;;;2769587;51;8792;-59
2021/09/27 07:15:12;;;;;;;;;0.75;0.75;;;;;;;;2776439;51;8765;-62
2021/09/27 07:17:38;;;;;;;;;1.00;1.00;;;;;;;;2777981;51;8767;-59
2021/09/27 07:20:06;;;;;;;;;0.00;0.00;;;;;;;;2780097;51;8807;-59
2021/09/27 07:22:32;;;;;;;;;0.00;0.00;;;;;;;;2774025;51;8792;-60
2021/09/27 07:24:57;;;;;;;;;1.00;1.00;;;;;;;;2773880;51;8783;-58
2021/09/27 07:27:23;;;;;;;;;1.67;1.67;;;;;;;;2773702;51;9428;-61
2021/09/27 07:29:48;;;;;;;;;0.00;0.00;;;;;;;;2775900;51;8983;-59
2021/09/27 07:32:14;;;;;;;;;0.00;0.00;;;;;;;;2779632;51;8775;-60
2021/09/27 07:34:39;;;;;;;;;3.67;1.00;;;;;;;;2779756;51;8763;-60
2021/09/27 07:37:05;;;;;;;;;0.33;0.00;;;;;;;;2779926;51;8782;-60
2021/09/27 07:39:31;;;;;;;;;3.33;1.00;;;;;;;;2779363;51;8870;-64
2021/09/27 07:41:57;;;;;;;;;0.00;0.00;;;;;;;;2779755;51;8855;-60
2021/09/27 07:44:22;;;;;;;;;1.33;1.00;;;;;;;;2779992;51;8750;-60
2021/09/27 07:46:48;;;;;;;;;1.00;1.00;;;;;;;;2777628;51;8792;-61
2021/09/27 07:49:13;;;;;;;;;1.33;0.67;;;;;;;;2773821;51;8773;-61
2021/09/27 07:51:39;;;;;;;;;2.00;2.00;;;;;;;;2773567;51;8803;-61
2021/09/27 07:54:05;;;;;;;;;1.00;0.33;;;;;;;;2773852;51;8761;-58
2021/09/27 07:56:31;;;;;;;;;2.50;1.25;;;;;;;;2773401;51;8749;-61
2021/09/27 07:58:56;;;;;;;;;1.00;1.00;;;;;;;;2773449;51;8925;-62
2021/09/27 08:01:22;;;;;;;;;1.00;1.00;;;;;;;;2774028;51;8781;-61
2021/09/27 08:03:47;;;;;;;;;0.67;0.67;;;;;;;;2773740;51;8867;-61
2021/09/27 08:06:13;;;;;;;;;0.67;0.67;;;;;;;;2773613;51;8764;-61
2021/09/27 08:08:39;;;;;;;;;1.00;1.00;;;;;;;;2773825;51;8881;-60
2021/09/27 08:11:05;;;;;;;;;0.25;0.25;;;;;;;;2773499;51;11414;-60
2021/09/27 08:13:31;;;;;;;;;1.00;1.00;;;;;;;;2773585;51;8769;-59
2021/09/27 08:15:56;;;;;;;;;3.00;2.00;;;;;;;;2773739;51;8856;-59
2021/09/27 08:18:22;;;;;;;;;0.00;0.00;;;;;;;;2773323;51;9639;-60
2021/09/27 08:20:49;;;;;;;;;0.00;0.00;;;;;;;;2775463;51;8781;-60
2021/09/27 08:23:15;;;;;;;;;0.25;0.25;;;;;;;;2779715;51;8878;-61
2021/09/27 08:25:42;;;;;;;;;0.00;0.00;;;;;;;;2779584;51;8774;-61
2021/09/27 08:28:09;;;;;;;;;1.00;0.00;;;;;;;;2776170;51;8757;-62
2021/09/27 08:30:37;;;;;;;;;0.25;0.25;;;;;;;;2773386;51;8785;-59
2021/09/27 08:33:04;;;;;;;;;0.00;0.00;;;;;;;;2773412;51;8776;-61
2021/09/27 08:35:30;;;;;;;;;1.00;1.00;;;;;;;;2773346;51;8905;-61
2021/09/27 08:37:56;;;;;;;;;2.00;1.00;;;;;;;;2773943;51;8773;-61
2021/09/27 08:40:37;;;;;;;;;0.00;0.00;;;;;;;;2773417;51;8891;-60
2021/09/27 08:43:12;;;;;;;;;1.00;1.00;;;;;;;;2773324;51;8769;-59
2021/09/27 08:45:38;;;;;;;;;1.00;1.00;;;;;;;;2773366;51;8745;-60
2021/09/27 08:48:19;;;;;;;;;0.00;0.00;;;;;;;;2773263;51;8805;-60
2021/09/27 08:50:46;;;;;;;;;1.00;1.00;;;;;;;;2773724;51;9412;-64
2021/09/27 08:53:34;;;;;;;;;1.00;1.00;;;;;;;;2773979;51;8799;-59
2021/09/27 08:56:02;;;;;;;;;1.00;1.00;;;;;;;;2770383;51;8765;-60
2021/09/27 08:58:34;;;;;;;;;1.00;0.00;;;;;;;;2773281;51;8791;-59
2021/09/27 09:01:20;;;;;;;;;0.60;0.60;;;;;;;;2773462;51;8870;-62
2021/09/27 09:03:54;;;;;;;;;1.00;1.00;;;;;;;;2773280;51;8854;-61
2021/09/27 09:06:32;;;;;;;;;1.00;1.00;;;;;;;;2773310;51;8834;-60
2021/09/27 09:09:08;;;;;;;;;0.80;0.80;;;;;;;;2773421;51;8769;-58
2021/09/27 09:11:45;;;;;;;;;2.60;2.00;;;;;;;;2773270;51;8907;-60
2021/09/27 09:14:14;;;;;;;;;1.40;1.40;;;;;;;;2773409;51;8780;-60
2021/09/27 09:16:40;;;;;;;;;4.20;4.20;;;;;;;;2773290;51;8784;-60
2021/09/27 09:19:09;;;;;;;;;1.20;1.20;;;;;;;;2773090;51;8785;-58
2021/09/27 09:21:38;;;;;;;;;0.00;0.00;;;;;;;;2777020;51;8758;-62
2021/09/27 09:24:09;;;;;;;;;0.40;0.40;;;;;;;;2779455;51;9423;-63
2021/09/27 09:26:37;;;;;;;;;5.00;5.00;;;;;;;;2779376;51;8781;-61
2021/09/27 09:29:04;;;;;;;;;3.20;3.20;;;;;;;;2779241;51;8789;-59
2021/09/27 09:31:34;;;;;;;;;3.20;3.20;;;;;;;;2779232;51;8811;-61
2021/09/27 09:34:05;;;;;;;;;4.00;4.00;;;;;;;;2779817;51;8780;-59
2021/09/27 09:36:40;;;;;;;;;4.80;4.80;;;;;;;;2779523;51;8843;-58
2021/09/27 09:39:26;;;;;;;;;3.00;3.00;;;;;;;;2779481;51;8774;-59
2021/09/27 09:41:54;;;;;;;;;2.60;2.00;;;;;;;;2779274;51;8785;-59
2021/09/27 09:44:22;;;;;;;;;3.00;3.00;;;;;;;;2779253;51;8877;-60
2021/09/27 09:47:01;;;;;;;;;3.60;2.40;;;;;;;;2779452;51;9375;-59
2021/09/27 09:49:30;;;;;;;;;3.60;2.40;;;;;;;;2779145;51;8770;-62
2021/09/27 09:52:00;;;;;;;;;5.80;5.00;;;;;;;;2778955;51;8786;-59
2021/09/27 09:54:27;;;;;;;;;3.80;3.40;;;;;;;;2779142;51;8770;-62
2021/09/27 09:57:06;;;;;;;;;5.00;5.00;;;;;;;;2779197;51;8778;-61
2021/09/27 09:59:37;;;;;;;;;6.80;6.80;;;;;;;;2779183;51;8767;-61
2021/09/27 10:02:07;;;;;;;;;7.20;7.20;;;;;;;;2778982;51;9431;-59
2021/09/27 10:04:36;;;;;;;;;12.40;11.20;;;;;;;;2779119;51;8751;-60
2021/09/27 10:07:09;;;;;;;;;7.80;7.80;;;;;;;;2779167;51;8888;-61
2021/09/27 10:09:37;;;;;;;;;8.40;8.40;;;;;;;;2779316;51;9453;-61
2021/09/27 10:12:05;;;;;;;;;7.00;7.00;;;;;;;;2778866;51;8786;-62
2021/09/27 10:14:31;;;;;;;;;6.80;6.80;;;;;;;;2779090;51;8814;-63
2021/09/27 10:17:07;;;;;;;;;9.00;9.00;;;;;;;;2779210;51;8758;-62
2021/09/27 10:19:39;;;;;;;;;5.80;5.80;;;;;;;;2774925;51;8757;-62
2021/09/27 10:22:11;;;;;;;;;8.80;8.80;;;;;;;;2777716;51;8897;-62
2021/09/27 10:24:50;;;;;;;;;6.00;6.00;;;;;;;;2779050;51;8767;-67
2021/09/27 10:27:18;;;;;;;;;6.60;6.60;;;;;;;;2779053;51;8766;-62
2021/09/27 10:29:44;;;;;;;;;6.60;6.60;;;;;;;;2779000;51;8774;-60
2021/09/27 10:32:31;;;;;;;;;2.75;2.75;;;;;;;;2779090;51;8863;-61
2021/09/27 10:34:58;;;;;;;;;3.60;3.60;;;;;;;;2779005;51;8885;-61
2021/09/27 10:37:24;;;;;;;;;6.80;6.80;;;;;;;;2779288;51;8782;-60
2021/09/27 10:39:52;;;;;;;;;9.80;9.80;;;;;;;;2778832;51;9407;-60
2021/09/27 10:42:20;;;;;;;;;7.00;6.40;;;;;;;;2771190;51;8773;-61
2021/09/27 10:44:52;;;;;;;;;8.80;8.80;;;;;;;;2771081;51;8817;-60
2021/09/27 10:47:21;;;;;;;;;11.20;11.20;;;;;;;;2771921;51;8765;-60
2021/09/27 10:49:55;;;;;;;;;7.80;7.80;;;;;;;;2771729;51;8773;-61
2021/09/27 10:52:24;;;;;;;;;10.00;10.00;;;;;;;;2771870;51;8892;-62
2021/09/27 10:54:58;;;;;;;;;6.60;6.60;;;;;;;;2772095;51;8765;-61
2021/09/27 10:57:31;;;;;;;;;8.60;8.60;;;;;;;;2771763;51;8773;-61
2021/09/27 10:59:59;;;;;;;;;4.20;4.20;;;;;;;;2772027;51;8757;-62
2021/09/27 11:02:25;;;;;;;;;3.80;3.80;;;;;;;;2771964;51;9401;-63
2021/09/27 11:04:53;;;;;;;;;5.50;5.50;;;;;;;;2772140;51;8862;-63
2021/09/27 11:07:25;;;;;;;;;4.40;4.40;;;;;;;;2771637;51;8797;-64
2021/09/27 11:09:53;;;;;;;;;2.00;2.00;;;;;;;;2770755;51;9470;-64
2021/09/27 11:12:24;;;;;;;;;2.00;2.00;;;;;;;;2771728;51;8793;-62
2021/09/27 11:14:55;;;;;;;;;2.00;2.00;;;;;;;;2771689;51;8769;-63
2021/09/27 11:17:33;;;;;;;;;3.00;3.00;;;;;;;;2771620;51;8765;-62
2021/09/27 11:20:03;;;;;;;;;3.80;3.80;;;;;;;;2771470;51;8809;-62
2021/09/27 11:22:35;;;;;;;;;4.20;4.00;;;;;;;;2771794;51;8834;-61
2021/09/27 11:25:10;;;;;;;;;3.00;3.00;;;;;;;;2771371;51;8873;-63
2021/09/27 11:27:37;;;;;;;;;7.60;7.60;;;;;;;;2771420;51;8777;-62
2021/09/27 11:30:22;;;;;;;;;7.20;7.20;;;;;;;;2771465;51;8777;-63
2021/09/27 11:32:55;;;;;;;;;6.00;6.00;;;;;;;;2776888;51;8797;-60
2021/09/27 11:35:33;;;;;;;;;9.60;8.60;;;;;;;;2772292;51;8765;-61
2021/09/27 11:38:26;;;;;;;;;1.40;1.40;;;;;;;;2772044;51;9410;-61
2021/09/27 11:40:53;;;;;;;;;3.00;2.80;;;;;;;;2772474;51;8777;-62
2021/09/27 11:43:19;;;;;;;;;2.60;2.60;;;;;;;;2772820;51;8793;-62
2021/09/27 11:45:50;;;;;;;;;4.25;4.25;;;;;;;;2772261;51;8792;-61
2021/09/27 11:48:16;;;;;;;;;6.60;6.60;;;;;;;;2772135;51;8781;-61
2021/09/27 11:50:48;;;;;;;;;5.00;5.00;;;;;;;;2772348;51;9504;-63
2021/09/27 11:53:20;;;;;;;;;5.00;5.00;;;;;;;;2772312;51;9524;-61
2021/09/27 11:56:08;;;;;;;;;10.00;10.00;;;;;;;;2772246;51;8874;-64
2021/09/27 11:58:43;;;;;;;;;6.60;6.60;;;;;;;;2768812;51;8817;-63
2021/09/27 12:01:19;;;;;;;;;8.60;8.60;;;;;;;;2772682;51;8792;-63
2021/09/27 12:04:03;;;;;;;;;8.00;8.00;;;;;;;;2771997;51;8810;-62
2021/09/27 12:06:34;;;;;;;;;6.00;6.00;;;;;;;;2772300;51;8817;-63
2021/09/27 12:09:00;;;;;;;;;5.00;5.00;;;;;;;;2772080;51;8825;-64
2021/09/27 12:11:26;;;;;;;;;4.50;4.50;;;;;;;;2772280;51;9451;-63
2021/09/27 12:13:56;;;;;;;;;5.80;5.80;;;;;;;;2772078;51;8781;-63
2021/09/27 12:16:24;;;;;;;;;4.60;4.60;;;;;;;;2772225;51;8764;-62
2021/09/27 12:18:52;;;;;;;;;8.00;8.00;;;;;;;;2771927;51;8923;-62
2021/09/27 12:21:19;;;;;;;;;4.60;3.40;;;;;;;;2772268;51;8777;-62
2021/09/27 12:23:47;;;;;;;;;2.20;2.20;;;;;;;;2772404;51;8788;-63
2021/09/27 12:26:28;;;;;;;;;4.80;4.80;;;;;;;;2772120;51;8777;-61
2021/09/27 12:29:02;;;;;;;;;3.60;3.60;;;;;;;;2772090;51;8967;-63
2021/09/27 12:31:27;;;;;;;;;3.00;3.00;;;;;;;;2772076;51;9489;-64
2021/09/27 12:33:53;;;;;;;;;4.75;3.75;;;;;;;;2772175;51;8781;-63
2021/09/27 12:36:20;;;;;;;;;4.00;4.00;;;;;;;;2771945;51;8895;-62
2021/09/27 12:38:50;;;;;;;;;5.60;5.60;;;;;;;;2772246;51;8784;-63
2021/09/27 12:41:18;;;;;;;;;3.00;3.00;;;;;;;;2771927;51;8807;-62
2021/09/27 12:43:43;;;;;;;;;3.00;3.00;;;;;;;;2772317;51;8847;-64
2021/09/27 12:46:20;;;;;;;;;6.00;6.00;;;;;;;;2771982;51;8792;-64
2021/09/27 12:48:49;;;;;;;;;3.80;3.80;;;;;;;;2771964;51;8776;-64
2021/09/27 12:51:19;;;;;;;;;2.80;2.80;;;;;;;;2771755;51;8958;-63
2021/09/27 12:53:57;;;;;;;;;3.00;3.00;;;;;;;;2771913;51;8819;-64
2021/09/27 12:56:23;;;;;;;;;5.20;4.00;;;;;;;;2771693;51;8781;-63
2021/09/27 12:58:48;;;;;;;;;1.25;1.25;;;;;;;;2772084;51;8781;-66
2021/09/27 13:01:18;;;;;;;;;3.00;3.00;;;;;;;;2771909;51;8914;-64
2021/09/27 13:03:48;;;;;;;;;1.20;1.20;;;;;;;;2772014;51;8872;-62
2021/09/27 13:06:23;;;;;;;;;2.20;2.20;;;;;;;;2771889;51;8903;-63
2021/09/27 13:08:50;;;;;;;;;0.25;0.25;;;;;;;;2772152;51;8781;-65
2021/09/27 13:11:25;;;;;;;;;0.00;0.00;;;;;;;;2771888;51;8801;-62
2021/09/27 13:13:59;;;;;;;;;2.00;1.00;;;;;;;;2771815;51;8923;-61
2021/09/27 13:16:27;;;;;;;;;1.00;0.00;;;;;;;;2772137;51;8773;-64
2021/09/27 13:18:52;;;;;;;;;1.25;0.00;;;;;;;;2771884;51;8773;-60
2021/09/27 13:21:23;;;;;;;;;2.00;0.33;;;;;;;;2772041;51;8801;-64
2021/09/27 13:23:52;;;;;;;;;1.50;1.00;;;;;;;;2772047;51;8928;-63
2021/09/27 13:26:20;;;;;;;;;0.25;0.25;;;;;;;;2779372;51;9039;-61
2021/09/27 13:29:12;;;;;;;;;0.50;0.50;;;;;;;;2771974;51;8833;-61
2021/09/27 13:31:52;;;;;;;;;0.00;0.00;;;;;;;;2767077;51;8797;-62
2021/09/27 13:34:29;;;;;;;;;0.00;0.00;;;;;;;;2771925;51;8781;-62
2021/09/27 13:36:54;;;;;;;;;0.00;0.00;;;;;;;;2772192;51;8781;-63
2021/09/27 13:39:22;;;;;;;;;0.00;0.00;;;;;;;;2771989;51;8854;-63
2021/09/27 13:41:48;;;;;;;;;0.60;0.60;;;;;;;;2771838;51;8776;-61
2021/09/27 13:44:32;;;;;;;;;1.75;1.75;;;;;;;;2772233;51;9535;-63
2021/09/27 13:46:58;;;;;;;;;2.00;1.60;;;;;;;;2772182;51;8809;-64
2021/09/27 13:49:24;;;;;;;;;1.00;1.00;;;;;;;;2772190;51;8777;-63
2021/09/27 13:51:49;;;;;;;;;1.00;1.00;;;;;;;;2772047;51;8805;-69
2021/09/27 13:54:15;;;;;;;;;3.00;3.00;;;;;;;;2771619;51;8788;-68
2021/09/27 13:56:41;;;;;;;;;2.00;1.00;;;;;;;;2772003;51;8773;-70
2021/09/27 13:59:07;;;;;;;;;1.20;1.20;;;;;;;;2771688;51;8812;-70
2021/09/27 14:01:32;;;;;;;;;2.00;2.00;;;;;;;;2772067;51;8773;-69
2021/09/27 14:03:58;;;;;;;;;2.00;1.00;;;;;;;;2771941;51;8777;-73
2021/09/27 14:06:27;;;;;;;;;1.00;1.00;;;;;;;;2772077;51;8797;-70
2021/09/27 14:08:54;;;;;;;;;1.80;1.80;;;;;;;;2771427;51;9413;-68
2021/09/27 14:11:20;;;;;;;;;2.00;2.00;;;;;;;;2771875;51;8841;-66
2021/09/27 14:13:45;;;;;;;;;3.00;3.00;;;;;;;;2772159;51;8781;-64
2021/09/27 14:16:12;;;;;;;;;2.25;2.25;;;;;;;;2771838;51;8789;-65
2021/09/27 14:18:38;;;;;;;;;1.00;1.00;;;;;;;;2771686;51;8823;-64
2021/09/27 14:21:04;;;;;;;;;3.20;3.20;;;;;;;;2771723;51;8899;-64
2021/09/27 14:23:31;;;;;;;;;2.75;2.75;;;;;;;;2771985;51;8781;-63
2021/09/27 14:25:57;;;;;;;;;3.00;3.00;;;;;;;;2771954;51;8773;-64
2021/09/27 14:28:24;;;;;;;;;1.00;1.00;;;;;;;;2771754;51;8990;-64
2021/09/27 14:30:50;;;;;;;;;2.40;2.40;;;;;;;;2770815;51;8782;-65
2021/09/27 14:33:16;;;;;;;;;1.00;1.00;;;;;;;;2771700;51;8928;-64
2021/09/27 14:35:42;;;;;;;;;1.40;1.40;;;;;;;;2771619;51;8785;-59
2021/09/27 14:38:09;;;;;;;;;2.00;2.00;;;;;;;;2771588;51;9667;-61
2021/09/27 14:40:35;;;;;;;;;3.00;2.80;;;;;;;;2771343;51;8908;-62
2021/09/27 14:43:00;;;;;;;;;2.00;2.00;;;;;;;;2771537;51;8811;-62
2021/09/27 14:45:26;;;;;;;;;3.75;3.00;;;;;;;;2771490;51;8957;-62
2021/09/27 14:47:52;;;;;;;;;2.00;2.00;;;;;;;;2771684;51;8882;-62
2021/09/27 14:50:21;;;;;;;;;1.75;1.75;;;;;;;;2771762;51;8800;-62
2021/09/27 14:52:47;;;;;;;;;3.40;3.00;;;;;;;;2771610;51;8801;-62
2021/09/27 14:55:13;;;;;;;;;2.75;2.75;;;;;;;;2770965;51;8793;-62
2021/09/27 14:57:39;;;;;;;;;2.20;2.20;;;;;;;;2771299;51;11555;-62
2021/09/27 15:00:06;;;;;;;;;2.50;1.25;;;;;;;;2771347;51;8785;-64
2021/09/27 15:02:32;;;;;;;;;3.00;1.40;;;;;;;;2771676;51;8777;-62
2021/09/27 15:04:57;;;;;;;;;2.00;1.00;;;;;;;;2771947;51;8789;-63
2021/09/27 15:07:23;;;;;;;;;1.00;1.00;;;;;;;;2772784;51;8777;-62
2021/09/27 15:09:48;;;;;;;;;1.50;1.50;;;;;;;;2772282;51;8826;-63
2021/09/27 15:12:14;;;;;;;;;1.75;1.75;;;;;;;;2772283;51;8962;-62
2021/09/27 15:14:39;;;;;;;;;1.75;1.75;;;;;;;;2772253;51;8792;-62
2021/09/27 15:17:05;;;;;;;;;1.25;1.25;;;;;;;;2772098;51;8781;-61
2021/09/27 15:19:31;;;;;;;;;2.75;2.00;;;;;;;;2772180;51;8931;-62